Time;durP1;ratioP1;P1;durP2;ratioP2;P2;SDS_P1;SDS_P2;PMS_P1;PMS_P2;Temp;Humidity;BMP_temperature;BMP_pressure;BME280_temperature;BME280_humidity;BME280_pressure;Samples;Min_cycle;Max_cycle;Signal;HPM_P1;HPM_P2
2023/09/02 00:02:27;;;;;;;8.40;3.15;;;;;;;;;;6299902;28;20051;-76
2023/09/02 00:05:29;;;;;;;6.95;2.60;;;;;;;;;;6297046;28;20056;-77
2023/09/02 00:08:31;;;;;;;7.97;3.00;;;;;;;;;;6300782;28;20048;-77
2023/09/02 00:11:34;;;;;;;6.00;2.90;;;;;;;;;;6294631;28;20060;-76
2023/09/02 00:14:36;;;;;;;7.45;2.67;;;;;;;;;;6299744;28;20364;-77
2023/09/02 00:17:38;;;;;;;7.38;2.67;;;;;;;;;;6298026;28;20056;-78
2023/09/02 00:20:39;;;;;;;7.90;2.55;;;;;;;;;;6298199;28;20048;-77
2023/09/02 00:23:45;;;;;;;7.38;2.80;;;;;;;;;;6299905;28;20111;-76
2023/09/02 00:26:50;;;;;;;6.85;2.92;;;;;;;;;;6296087;28;20052;-77
2023/09/02 00:29:52;;;;;;;8.00;2.92;;;;;;;;;;6297708;28;20052;-77
2023/09/02 00:32:54;;;;;;;7.88;2.80;;;;;;;;;;6294933;28;20040;-77
2023/09/02 00:35:55;;;;;;;7.47;3.20;;;;;;;;;;6297012;28;20133;-77
2023/09/02 00:38:57;;;;;;;4.97;2.28;;;;;;;;;;6299248;28;20335;-77
2023/09/02 00:42:01;;;;;;;8.85;2.60;;;;;;;;;;6302801;28;20056;-77
2023/09/02 00:45:04;;;;;;;6.45;2.92;;;;;;;;;;6298228;28;20063;-77
2023/09/02 00:48:06;;;;;;;7.55;3.00;;;;;;;;;;6298885;28;20107;-77
2023/09/02 00:51:08;;;;;;;6.60;2.90;;;;;;;;;;6299822;28;20061;-77
2023/09/02 00:54:10;;;;;;;7.28;2.85;;;;;;;;;;6295514;28;20052;-78
2023/09/02 00:57:20;;;;;;;5.68;2.70;;;;;;;;;;6298569;28;20351;-77
2023/09/02 01:00:22;;;;;;;6.38;2.70;;;;;;;;;;6303622;28;20348;-78
2023/09/02 01:03:23;;;;;;;7.63;2.92;;;;;;;;;;6303129;28;20103;-77
2023/09/02 01:06:28;;;;;;;5.85;2.97;;;;;;;;;;6293816;28;20103;-78
2023/09/02 01:09:39;;;;;;;6.63;2.58;;;;;;;;;;6299829;28;20056;-77
2023/09/02 01:12:42;;;;;;;5.30;2.42;;;;;;;;;;6302331;28;20067;-77
2023/09/02 01:15:47;;;;;;;7.25;2.60;;;;;;;;;;6305757;28;20048;-77
2023/09/02 01:18:49;;;;;;;6.88;2.97;;;;;;;;;;6304709;28;20064;-77
2023/09/02 01:22:17;;;;;;;5.78;2.65;;;;;;;;;;6299647;28;20078;-77
2023/09/02 01:25:29;;;;;;;5.75;2.83;;;;;;;;;;6292203;28;20160;-77
2023/09/02 01:28:35;;;;;;;9.45;3.38;;;;;;;;;;6301776;28;21468;-77
2023/09/02 01:31:37;;;;;;;6.22;3.20;;;;;;;;;;6301107;28;20055;-77
2023/09/02 01:34:40;;;;;;;7.43;3.10;;;;;;;;;;6299890;28;20056;-78
2023/09/02 01:37:43;;;;;;;7.50;3.17;;;;;;;;;;6299574;28;20079;-77
2023/09/02 01:40:46;;;;;;;8.18;3.58;;;;;;;;;;6302204;28;20053;-77
2023/09/02 01:43:55;;;;;;;9.68;3.83;;;;;;;;;;6301104;28;20233;-77
2023/09/02 01:46:57;;;;;;;7.40;4.05;;;;;;;;;;6301792;28;20053;-77
2023/09/02 01:49:59;;;;;;;6.03;4.13;;;;;;;;;;6301767;28;20051;-76
2023/09/02 01:53:01;;;;;;;8.55;4.00;;;;;;;;;;6301528;28;20056;-77
2023/09/02 01:56:04;;;;;;;5.05;3.60;;;;;;;;;;6295138;28;20067;-76
2023/09/02 01:59:07;;;;;;;9.10;4.10;;;;;;;;;;6297118;28;20057;-77
2023/09/02 02:02:09;;;;;;;10.82;5.18;;;;;;;;;;6297861;28;20140;-78
2023/09/02 02:05:13;;;;;;;11.00;6.18;;;;;;;;;;6298804;28;20045;-78
2023/09/02 02:08:20;;;;;;;11.20;6.00;;;;;;;;;;6302375;28;20061;-76
2023/09/02 02:11:22;;;;;;;11.18;6.50;;;;;;;;;;6302880;28;20044;-76
2023/09/02 02:14:25;;;;;;;18.58;7.18;;;;;;;;;;6301825;28;20062;-76
2023/09/02 02:17:31;;;;;;;16.02;7.60;;;;;;;;;;6300257;28;20275;-77
2023/09/02 02:20:39;;;;;;;13.15;8.60;;;;;;;;;;6299640;28;20370;-76
2023/09/02 02:23:41;;;;;;;15.05;8.90;;;;;;;;;;6298141;28;20052;-77
2023/09/02 02:26:43;;;;;;;11.38;7.40;;;;;;;;;;6296166;28;20052;-77
2023/09/02 02:29:49;;;;;;;11.85;8.27;;;;;;;;;;6296676;28;20053;-77
2023/09/02 02:32:51;;;;;;;13.52;8.18;;;;;;;;;;6297344;28;20248;-77
2023/09/02 02:35:53;;;;;;;12.82;7.57;;;;;;;;;;6292930;28;20068;-77
2023/09/02 02:38:58;;;;;;;13.70;8.27;;;;;;;;;;6295983;28;20046;-77
2023/09/02 02:41:59;;;;;;;14.50;9.35;;;;;;;;;;6298158;28;20060;-78
2023/09/02 02:45:02;;;;;;;18.77;8.48;;;;;;;;;;6295922;28;20044;-76
2023/09/02 02:48:05;;;;;;;14.75;8.35;;;;;;;;;;6297257;28;20057;-77
2023/09/02 02:51:07;;;;;;;11.15;8.05;;;;;;;;;;6294285;28;20051;-77
2023/09/02 02:54:13;;;;;;;13.75;7.75;;;;;;;;;;6299166;28;20094;-77
2023/09/02 02:57:15;;;;;;;15.38;7.97;;;;;;;;;;6300887;28;20122;-77
2023/09/02 03:00:19;;;;;;;13.23;8.10;;;;;;;;;;6301576;28;20064;-77
2023/09/02 03:03:20;;;;;;;;;;;;;;;;;;6298690;28;20049;-78
2023/09/02 03:06:26;;;;;;;14.18;7.22;;;;;;;;;;6296882;28;19916;-77
2023/09/02 03:09:28;;;;;;;11.50;7.25;;;;;;;;;;6299384;28;20057;-77
2023/09/02 03:12:32;;;;;;;15.52;6.68;;;;;;;;;;6300008;28;20051;-77
2023/09/02 03:15:35;;;;;;;13.70;6.80;;;;;;;;;;6298510;28;20059;-76
2023/09/02 03:18:36;;;;;;;7.68;4.90;;;;;;;;;;6298471;28;20064;-77
2023/09/02 03:21:38;;;;;;;11.82;5.22;;;;;;;;;;6298621;28;20383;-77
2023/09/02 03:24:41;;;;;;;8.30;5.00;;;;;;;;;;6297293;28;20056;-77
2023/09/02 03:27:44;;;;;;;10.50;4.90;;;;;;;;;;6296108;28;20083;-77
2023/09/02 03:30:53;;;;;;;10.70;5.40;;;;;;;;;;6299028;28;20044;-77
2023/09/02 03:33:58;;;;;;;10.40;4.93;;;;;;;;;;6299665;28;20079;-77
2023/09/02 03:37:00;;;;;;;9.65;4.35;;;;;;;;;;6295349;28;20061;-77
2023/09/02 03:40:03;;;;;;;10.10;4.10;;;;;;;;;;6298795;28;20074;-77
2023/09/02 03:43:05;;;;;;;11.75;4.78;;;;;;;;;;6298507;28;20103;-77
2023/09/02 03:46:11;;;;;;;10.55;4.20;;;;;;;;;;6301981;28;20059;-77
2023/09/02 03:49:13;;;;;;;7.88;3.70;;;;;;;;;;6297850;28;20063;-77
2023/09/02 03:52:15;;;;;;;11.52;4.68;;;;;;;;;;6299702;28;20311;-77
2023/09/02 03:55:17;;;;;;;9.80;4.30;;;;;;;;;;6299021;28;20205;-79
2023/09/02 03:58:19;;;;;;;11.57;4.55;;;;;;;;;;6278589;28;20064;-77
2023/09/02 04:01:22;;;;;;;10.73;4.38;;;;;;;;;;6299790;28;20360;-77
2023/09/02 04:04:27;;;;;;;12.10;4.80;;;;;;;;;;6294400;28;20057;-77
2023/09/02 04:07:29;;;;;;;7.80;4.80;;;;;;;;;;6297253;28;20153;-78
2023/09/02 04:10:32;;;;;;;8.88;5.50;;;;;;;;;;6300525;28;20095;-78
2023/09/02 04:13:33;;;;;;;12.27;5.20;;;;;;;;;;6297057;28;20048;-79
2023/09/02 04:16:37;;;;;;;11.75;5.63;;;;;;;;;;6299573;28;20089;-78
2023/09/02 04:19:38;;;;;;;11.48;5.70;;;;;;;;;;6296676;28;20060;-77
2023/09/02 04:22:40;;;;;;;8.68;5.03;;;;;;;;;;6297175;28;20108;-77
2023/09/02 04:25:46;;;;;;;8.75;5.18;;;;;;;;;;6297814;28;20055;-77
2023/09/02 04:28:48;;;;;;;10.32;6.40;;;;;;;;;;6295616;28;20094;-78
2023/09/02 04:31:52;;;;;;;7.57;5.10;;;;;;;;;;6303082;28;20060;-77
2023/09/02 04:34:53;;;;;;;10.95;4.88;;;;;;;;;;6303214;28;20129;-76
2023/09/02 04:37:55;;;;;;;7.55;4.40;;;;;;;;;;6309561;28;20066;-78
2023/09/02 04:40:57;;;;;;;7.80;3.95;;;;;;;;;;6305277;28;20056;-77
2023/09/02 04:43:58;;;;;;;6.97;4.43;;;;;;;;;;6302117;28;20336;-78
2023/09/02 04:47:01;;;;;;;8.93;4.70;;;;;;;;;;6306884;28;20052;-77
2023/09/02 04:50:04;;;;;;;10.23;4.82;;;;;;;;;;6301891;28;20233;-77
2023/09/02 04:53:07;;;;;;;8.55;4.30;;;;;;;;;;6302110;28;20129;-77
2023/09/02 04:56:09;;;;;;;8.50;4.75;;;;;;;;;;6286110;28;20067;-77
2023/09/02 04:59:11;;;;;;;7.22;4.50;;;;;;;;;;6304892;28;20068;-77
2023/09/02 05:02:14;;;;;;;8.30;4.75;;;;;;;;;;6304018;28;20045;-77
2023/09/02 05:05:17;;;;;;;7.57;4.15;;;;;;;;;;6304246;28;20103;-77
2023/09/02 05:08:19;;;;;;;9.82;4.53;;;;;;;;;;6301209;28;20057;-76
2023/09/02 05:11:21;;;;;;;10.57;4.57;;;;;;;;;;6303475;28;20341;-77
2023/09/02 05:14:23;;;;;;;5.53;4.05;;;;;;;;;;6306423;28;20498;-77
2023/09/02 05:17:26;;;;;;;10.25;4.38;;;;;;;;;;6304563;28;20056;-77
2023/09/02 05:20:28;;;;;;;11.68;5.07;;;;;;;;;;6304394;28;20256;-79
2023/09/02 05:23:29;;;;;;;8.20;5.03;;;;;;;;;;6305176;28;20060;-77
2023/09/02 05:26:31;;;;;;;9.15;4.93;;;;;;;;;;6302738;28;20071;-78
2023/09/02 05:29:33;;;;;;;9.93;4.65;;;;;;;;;;6301197;28;20125;-76
2023/09/02 05:32:36;;;;;;;9.95;4.90;;;;;;;;;;6304027;28;20052;-77
2023/09/02 05:35:38;;;;;;;11.32;4.78;;;;;;;;;;6301761;28;20063;-78
2023/09/02 05:38:40;;;;;;;8.88;4.82;;;;;;;;;;6300821;28;20060;-79
2023/09/02 05:41:41;;;;;;;7.97;4.97;;;;;;;;;;6304523;28;20055;-77
2023/09/02 05:44:43;;;;;;;9.93;5.20;;;;;;;;;;6296044;28;20127;-77
2023/09/02 05:47:46;;;;;;;11.10;5.22;;;;;;;;;;6303000;28;20172;-77
2023/09/02 05:50:48;;;;;;;10.65;4.55;;;;;;;;;;6302344;28;20255;-79
2023/09/02 05:53:50;;;;;;;11.70;4.72;;;;;;;;;;6304895;28;20055;-77
2023/09/02 05:56:52;;;;;;;8.00;4.65;;;;;;;;;;6303735;28;20044;-77
2023/09/02 05:59:53;;;;;;;6.70;4.35;;;;;;;;;;6298316;28;20053;-77
2023/09/02 06:02:57;;;;;;;11.93;4.72;;;;;;;;;;6299490;28;20352;-77
2023/09/02 06:05:59;;;;;;;7.10;3.65;;;;;;;;;;6302781;28;20094;-79
2023/09/02 06:09:01;;;;;;;6.97;4.20;;;;;;;;;;6300505;28;20051;-76
2023/09/02 06:12:03;;;;;;;7.55;4.65;;;;;;;;;;6303289;28;20169;-77
2023/09/02 06:15:05;;;;;;;7.25;4.35;;;;;;;;;;6298690;28;20052;-77
2023/09/02 06:18:09;;;;;;;8.30;4.37;;;;;;;;;;6300834;28;20231;-77
2023/09/02 06:21:11;;;;;;;8.90;4.18;;;;;;;;;;6302069;28;20071;-77
2023/09/02 06:24:13;;;;;;;11.03;4.93;;;;;;;;;;6301447;28;20057;-77
2023/09/02 06:27:15;;;;;;;15.10;4.68;;;;;;;;;;6303332;28;20068;-76
2023/09/02 06:30:17;;;;;;;8.80;4.10;;;;;;;;;;6301727;28;20060;-77
2023/09/02 06:33:22;;;;;;;7.93;4.03;;;;;;;;;;6300260;28;20053;-77
2023/09/02 06:36:23;;;;;;;8.30;5.03;;;;;;;;;;6297482;28;20059;-78
2023/09/02 06:39:25;;;;;;;8.07;4.72;;;;;;;;;;6297384;28;20110;-77
2023/09/02 06:42:27;;;;;;;6.55;4.50;;;;;;;;;;6299672;28;20059;-78
2023/09/02 06:45:29;;;;;;;8.82;4.90;;;;;;;;;;6303742;28;20336;-77
2023/09/02 06:48:32;;;;;;;7.57;4.57;;;;;;;;;;6299422;28;20059;-77
2023/09/02 06:51:33;;;;;;;10.05;4.78;;;;;;;;;;6302121;28;20063;-76
2023/09/02 06:54:35;;;;;;;8.75;4.38;;;;;;;;;;6297964;28;20051;-77
2023/09/02 06:57:42;;;;;;;9.02;4.72;;;;;;;;;;6298831;28;20333;-77
2023/09/02 07:00:44;;;;;;;8.20;4.65;;;;;;;;;;6299930;28;20060;-77
2023/09/02 07:03:47;;;;;;;8.68;4.97;;;;;;;;;;6295057;28;20060;-77
2023/09/02 07:06:48;;;;;;;9.98;4.85;;;;;;;;;;6297587;28;20056;-78
2023/09/02 07:09:50;;;;;;;8.57;4.80;;;;;;;;;;6302449;28;20060;-77
2023/09/02 07:12:53;;;;;;;8.60;5.05;;;;;;;;;;6301937;28;20048;-78
2023/09/02 07:16:04;;;;;;;10.98;5.57;;;;;;;;;;6300614;28;20117;-77
2023/09/02 07:19:07;;;;;;;7.53;4.75;;;;;;;;;;6302987;28;20055;-78
2023/09/02 07:22:09;;;;;;;9.18;4.78;;;;;;;;;;6300941;28;20053;-78
2023/09/02 07:25:11;;;;;;;12.45;5.68;;;;;;;;;;6297776;28;20054;-77
2023/09/02 07:28:12;;;;;;;11.15;5.97;;;;;;;;;;6299553;28;20118;-78
2023/09/02 07:31:17;;;;;;;9.68;5.68;;;;;;;;;;6300891;28;20229;-77
2023/09/02 07:34:21;;;;;;;9.80;6.22;;;;;;;;;;6298110;28;20055;-78
2023/09/02 07:37:23;;;;;;;10.90;6.63;;;;;;;;;;6298255;28;20074;-77
2023/09/02 07:40:24;;;;;;;12.10;6.10;;;;;;;;;;6300688;28;20691;-79
2023/09/02 07:43:26;;;;;;;10.38;5.70;;;;;;;;;;6297984;28;20048;-77
2023/09/02 07:46:28;;;;;;;11.05;6.38;;;;;;;;;;6301494;28;20217;-77
2023/09/02 07:49:31;;;;;;;12.32;6.88;;;;;;;;;;6300598;28;20048;-77
2023/09/02 07:52:32;;;;;;;10.85;6.13;;;;;;;;;;6299141;28;20343;-77
2023/09/02 07:55:34;;;;;;;13.25;5.97;;;;;;;;;;6302421;28;20228;-77
2023/09/02 07:58:36;;;;;;;10.95;5.95;;;;;;;;;;6296566;28;20044;-78
2023/09/02 08:01:38;;;;;;;6.33;4.90;;;;;;;;;;6302809;28;20057;-79
2023/09/02 08:04:41;;;;;;;10.00;6.20;;;;;;;;;;6297771;28;20059;-77
2023/09/02 08:07:44;;;;;;;12.65;6.28;;;;;;;;;;6306131;28;20059;-77
2023/09/02 08:10:46;;;;;;;8.25;5.72;;;;;;;;;;6300857;28;20302;-77
2023/09/02 08:13:48;;;;;;;8.05;6.07;;;;;;;;;;6305030;28;20143;-78
2023/09/02 08:16:49;;;;;;;10.27;6.78;;;;;;;;;;6301019;28;20045;-77
2023/09/02 08:19:53;;;;;;;10.07;6.82;;;;;;;;;;6303977;28;20056;-77
2023/09/02 08:22:55;;;;;;;11.13;7.97;;;;;;;;;;6303426;28;20044;-78
2023/09/02 08:25:56;;;;;;;10.05;7.13;;;;;;;;;;6300954;28;20062;-77
2023/09/02 08:28:58;;;;;;;9.07;7.22;;;;;;;;;;6304533;28;20048;-78
2023/09/02 08:32:00;;;;;;;13.80;8.98;;;;;;;;;;6304262;28;20052;-77
2023/09/02 08:35:04;;;;;;;13.82;7.57;;;;;;;;;;6300146;28;20044;-77
2023/09/02 08:38:06;;;;;;;9.80;7.05;;;;;;;;;;6299923;28;20056;-78
2023/09/02 08:41:08;;;;;;;7.90;7.07;;;;;;;;;;6304007;28;20119;-78
2023/09/02 08:44:11;;;;;;;9.30;6.65;;;;;;;;;;6302410;28;20045;-78
2023/09/02 08:47:12;;;;;;;8.32;6.93;;;;;;;;;;6304581;28;20050;-77
2023/09/02 08:50:16;;;;;;;10.63;6.75;;;;;;;;;;6300963;28;20068;-78
2023/09/02 08:53:18;;;;;;;16.77;7.75;;;;;;;;;;6304154;28;20040;-77
2023/09/02 08:56:19;;;;;;;14.20;6.85;;;;;;;;;;6304652;28;20055;-78
2023/09/02 08:59:21;;;;;;;10.53;7.07;;;;;;;;;;6298725;28;20123;-78
2023/09/02 09:02:23;;;;;;;10.40;6.77;;;;;;;;;;6306386;28;20054;-77
2023/09/02 09:05:27;;;;;;;11.52;7.22;;;;;;;;;;6302213;28;20079;-78
2023/09/02 09:08:30;;;;;;;13.00;7.72;;;;;;;;;;6300415;28;20064;-78
2023/09/02 09:11:33;;;;;;;11.02;7.28;;;;;;;;;;6300686;28;20060;-77
2023/09/02 09:14:37;;;;;;;13.18;7.15;;;;;;;;;;6299947;28;20048;-79
2023/09/02 09:17:39;;;;;;;10.73;7.53;;;;;;;;;;6298626;28;20044;-79
2023/09/02 09:20:42;;;;;;;12.45;8.00;;;;;;;;;;6301092;28;20060;-77
2023/09/02 09:23:44;;;;;;;10.85;8.25;;;;;;;;;;6303280;28;20052;-79
2023/09/02 09:26:46;;;;;;;11.63;8.20;;;;;;;;;;6301765;28;20926;-78
2023/09/02 09:29:48;;;;;;;11.95;8.00;;;;;;;;;;6302614;28;20056;-78
2023/09/02 09:32:57;;;;;;;10.93;7.82;;;;;;;;;;6302097;28;20052;-78
2023/09/02 09:36:10;;;;;;;11.50;7.75;;;;;;;;;;6301214;28;20076;-78
2023/09/02 09:39:12;;;;;;;10.35;6.45;;;;;;;;;;6303113;28;20057;-78
2023/09/02 09:42:15;;;;;;;12.65;7.50;;;;;;;;;;6302790;28;20044;-78
2023/09/02 09:45:17;;;;;;;10.13;6.65;;;;;;;;;;6302181;28;20055;-78
2023/09/02 09:48:22;;;;;;;12.75;8.27;;;;;;;;;;6300159;28;20341;-79
2023/09/02 09:51:25;;;;;;;10.35;6.50;;;;;;;;;;6303316;28;20052;-79
2023/09/02 09:54:37;;;;;;;8.68;6.40;;;;;;;;;;6297693;28;20049;-78
2023/09/02 09:57:40;;;;;;;8.43;6.93;;;;;;;;;;6300377;28;20190;-80
2023/09/02 10:00:51;;;;;;;9.98;6.10;;;;;;;;;;6301048;28;20079;-79
2023/09/02 10:03:55;;;;;;;7.53;5.32;;;;;;;;;;6299393;28;20098;-79
2023/09/02 10:07:01;;;;;;;7.10;4.63;;;;;;;;;;6301394;28;20291;-79
2023/09/02 10:10:06;;;;;;;9.43;5.22;;;;;;;;;;6298187;28;20054;-78
2023/09/02 10:13:07;;;;;;;8.50;6.07;;;;;;;;;;6303288;28;20237;-78
2023/09/02 10:16:09;;;;;;;14.18;5.78;;;;;;;;;;6300508;28;20060;-79
2023/09/02 10:19:12;;;;;;;7.72;5.85;;;;;;;;;;6298977;28;20060;-79
2023/09/02 10:22:18;;;;;;;11.52;7.20;;;;;;;;;;6301368;28;20075;-78
2023/09/02 10:25:24;;;;;;;7.70;6.13;;;;;;;;;;6299328;28;20361;-77
2023/09/02 10:28:33;;;;;;;8.90;5.97;;;;;;;;;;6296997;28;20063;-78
2023/09/02 10:31:45;;;;;;;8.48;5.03;;;;;;;;;;6299560;28;20102;-78
2023/09/02 10:34:49;;;;;;;9.23;5.00;;;;;;;;;;6300778;28;20056;-79
2023/09/02 10:37:55;;;;;;;8.38;5.03;;;;;;;;;;6298518;28;20106;-79
2023/09/02 10:41:04;;;;;;;5.47;3.30;;;;;;;;;;6296954;28;20052;-78
2023/09/02 10:44:06;;;;;;;4.82;3.42;;;;;;;;;;6302343;28;20244;-79
2023/09/02 10:47:08;;;;;;;6.22;2.97;;;;;;;;;;6296540;28;20136;-78
2023/09/02 10:50:11;;;;;;;6.30;3.28;;;;;;;;;;6300635;28;20131;-79
2023/09/02 10:53:14;;;;;;;5.68;4.13;;;;;;;;;;6300574;28;20281;-79
2023/09/02 10:56:25;;;;;;;6.20;4.60;;;;;;;;;;6297459;28;20068;-78
2023/09/02 10:59:30;;;;;;;6.50;4.30;;;;;;;;;;6294998;28;20060;-78
2023/09/02 11:02:41;;;;;;;5.78;3.97;;;;;;;;;;6297261;28;20044;-78
2023/09/02 11:06:06;;;;;;;9.18;4.53;;;;;;;;;;6299997;28;20110;-79
2023/09/02 11:09:09;;;;;;;6.95;4.97;;;;;;;;;;6300026;28;20048;-78
2023/09/02 11:12:11;;;;;;;4.60;3.17;;;;;;;;;;6298970;28;20056;-79
2023/09/02 11:15:18;;;;;;;7.47;4.20;;;;;;;;;;6301004;28;20040;-79
2023/09/02 11:18:32;;;;;;;5.68;2.95;;;;;;;;;;6297577;28;20048;-79
2023/09/02 11:21:37;;;;;;;5.72;3.95;;;;;;;;;;6298166;28;20055;-78
2023/09/02 11:24:49;;;;;;;6.63;3.85;;;;;;;;;;6296659;28;20050;-78
2023/09/02 11:27:51;;;;;;;5.55;3.80;;;;;;;;;;6296154;28;20130;-79
2023/09/02 11:31:04;;;;;;;10.75;5.20;;;;;;;;;;6297654;28;20059;-78
2023/09/02 11:34:05;;;;;;;6.63;4.45;;;;;;;;;;6299801;28;20398;-78
2023/09/02 11:37:07;;;;;;;8.40;3.85;;;;;;;;;;6296739;28;20371;-78
2023/09/02 11:40:17;;;;;;;7.38;4.40;;;;;;;;;;6300736;28;20051;-80
2023/09/02 11:43:19;;;;;;;6.97;4.30;;;;;;;;;;6297412;28;20337;-78
2023/09/02 11:46:21;;;;;;;8.90;4.75;;;;;;;;;;6298342;28;20390;-78
2023/09/02 11:49:23;;;;;;;9.20;4.10;;;;;;;;;;6299640;28;20329;-78
2023/09/02 11:52:27;;;;;;;4.57;3.33;;;;;;;;;;6299979;28;20052;-78
2023/09/02 11:55:33;;;;;;;5.90;3.53;;;;;;;;;;6295113;28;20172;-78
2023/09/02 11:58:35;;;;;;;5.00;2.92;;;;;;;;;;6296865;28;20076;-78
2023/09/02 12:01:45;;;;;;;7.97;3.33;;;;;;;;;;6301402;28;20064;-78
2023/09/02 12:04:48;;;;;;;10.25;4.57;;;;;;;;;;6296554;28;20060;-78
2023/09/02 12:07:50;;;;;;;9.00;4.45;;;;;;;;;;6299561;28;20071;-79
2023/09/02 12:10:54;;;;;;;6.75;4.18;;;;;;;;;;6297733;28;20048;-78
2023/09/02 12:13:56;;;;;;;8.02;3.03;;;;;;;;;;6289884;28;20063;-80
2023/09/02 12:16:58;;;;;;;4.80;2.90;;;;;;;;;;6297506;28;20052;-80
2023/09/02 12:20:11;;;;;;;7.50;3.75;;;;;;;;;;6286674;28;20248;-80
2023/09/02 12:23:13;;;;;;;5.30;3.65;;;;;;;;;;6298097;28;20080;-81
2023/09/02 12:26:16;;;;;;;5.13;3.08;;;;;;;;;;6292275;28;20056;-79
2023/09/02 12:29:38;;;;;;;4.93;3.80;;;;;;;;;;6294575;28;20056;-80
2023/09/02 12:32:52;;;;;;;7.45;3.25;;;;;;;;;;6270595;28;20056;-81
2023/09/02 12:35:56;;;;;;;4.72;3.10;;;;;;;;;;6298781;28;20370;-81
2023/09/02 12:38:58;;;;;;;6.63;3.10;;;;;;;;;;6294079;28;20119;-81
2023/09/02 12:42:01;;;;;;;4.30;2.85;;;;;;;;;;6296866;28;20052;-79
2023/09/02 12:45:04;;;;;;;4.72;3.10;;;;;;;;;;6298305;28;20055;-80
2023/09/02 12:48:20;;;;;;;3.83;2.88;;;;;;;;;;6297022;28;20061;-80
2023/09/02 12:51:27;;;;;;;5.10;3.05;;;;;;;;;;6294871;28;20041;-82
2023/09/02 12:54:30;;;;;;;6.30;2.78;;;;;;;;;;6298639;28;20045;-80
2023/09/02 12:57:35;;;;;;;4.45;2.72;;;;;;;;;;6287897;28;20052;-80
2023/09/02 13:00:42;;;;;;;5.43;3.35;;;;;;;;;;6300532;28;20345;-80
2023/09/02 13:07:25;;;;;;;4.68;3.60;;;;;;;;;;6295676;28;20049;-79
2023/09/02 13:10:26;;;;;;;4.95;3.05;;;;;;;;;;6301290;28;20355;-79
2023/09/02 13:13:30;;;;;;;5.50;2.88;;;;;;;;;;6304598;28;20065;-79
2023/09/02 13:16:33;;;;;;;6.00;3.38;;;;;;;;;;6302702;28;20047;-79
2023/09/02 13:19:38;;;;;;;6.07;3.00;;;;;;;;;;6301933;28;20658;-80
2023/09/02 13:22:41;;;;;;;5.82;3.30;;;;;;;;;;6296904;28;20380;-81
2023/09/02 13:25:42;;;;;;;4.97;3.10;;;;;;;;;;6304170;28;20052;-79
2023/09/02 13:32:21;;;;;;;7.07;3.67;;;;;;;;;;6280311;28;20060;-79
2023/09/02 13:39:00;;;;;;;6.85;3.00;;;;;;;;;;6247584;28;20053;-81
2023/09/02 13:42:08;;;;;;;6.72;3.42;;;;;;;;;;6247391;28;20061;-79
2023/09/02 13:45:21;;;;;;;6.13;3.45;;;;;;;;;;6247501;28;20046;-79
2023/09/02 13:48:23;;;;;;;4.28;2.85;;;;;;;;;;6239218;28;20061;-80
2023/09/02 13:51:25;;;;;;;6.40;3.15;;;;;;;;;;6247705;28;20082;-79
2023/09/02 13:54:28;;;;;;;4.22;3.03;;;;;;;;;;6248783;28;20056;-79
2023/09/02 13:57:30;;;;;;;4.70;2.60;;;;;;;;;;6249313;28;20235;-80
2023/09/02 14:00:39;;;;;;;3.65;2.58;;;;;;;;;;6249686;28;20119;-79
2023/09/02 14:03:42;;;;;;;7.55;3.00;;;;;;;;;;6248021;28;20060;-79
2023/09/02 14:06:59;;;;;;;5.95;2.85;;;;;;;;;;6248674;28;20050;-81
2023/09/02 14:10:11;;;;;;;5.00;2.90;;;;;;;;;;6179394;28;20046;-79
2023/09/02 14:13:17;;;;;;;5.40;2.97;;;;;;;;;;6191326;28;20460;-79
2023/09/02 14:16:27;;;;;;;3.70;2.92;;;;;;;;;;6191497;28;20120;-79
2023/09/02 14:19:29;;;;;;;6.97;3.40;;;;;;;;;;6193183;28;22194;-79
2023/09/02 14:22:34;;;;;;;6.50;3.17;;;;;;;;;;6193236;28;20105;-80
2023/09/02 14:25:38;;;;;;;3.72;2.83;;;;;;;;;;6192985;28;20066;-79
2023/09/02 14:28:40;;;;;;;3.60;3.08;;;;;;;;;;6192670;28;20335;-79
2023/09/02 14:31:43;;;;;;;5.57;2.88;;;;;;;;;;6191816;28;20054;-79
2023/09/02 14:34:46;;;;;;;5.50;2.90;;;;;;;;;;6191712;28;20175;-79
2023/09/02 14:37:48;;;;;;;3.30;3.00;;;;;;;;;;6195285;28;20125;-80
2023/09/02 14:40:50;;;;;;;4.03;2.53;;;;;;;;;;6186130;28;20058;-79
2023/09/02 14:43:52;;;;;;;3.90;2.72;;;;;;;;;;6193686;28;20204;-78
2023/09/02 14:46:55;;;;;;;5.15;2.97;;;;;;;;;;6238959;28;20106;-79
2023/09/02 14:50:00;;;;;;;5.25;2.60;;;;;;;;;;6300149;28;20054;-79
2023/09/02 14:53:04;;;;;;;4.32;2.78;;;;;;;;;;6298553;28;20316;-80
2023/09/02 14:56:06;;;;;;;3.78;2.80;;;;;;;;;;6300969;28;20065;-79
2023/09/02 14:59:12;;;;;;;4.75;2.47;;;;;;;;;;6301337;28;20087;-80
2023/09/02 15:02:20;;;;;;;5.30;2.65;;;;;;;;;;6296082;28;20056;-80
2023/09/02 15:05:26;;;;;;;4.03;2.53;;;;;;;;;;6296819;28;20345;-79
2023/09/02 15:08:28;;;;;;;3.35;2.38;;;;;;;;;;6301736;28;20052;-80
2023/09/02 15:11:30;;;;;;;5.03;2.60;;;;;;;;;;6298837;28;20044;-78
2023/09/02 15:14:31;;;;;;;3.33;2.08;;;;;;;;;;6294046;28;20341;-81
2023/09/02 15:17:35;;;;;;;6.63;2.58;;;;;;;;;;6299436;28;20051;-80
2023/09/02 15:20:37;;;;;;;5.10;2.50;;;;;;;;;;6298903;28;20061;-80
2023/09/02 15:23:42;;;;;;;6.85;2.75;;;;;;;;;;6301037;28;20240;-79
2023/09/02 15:26:44;;;;;;;4.50;2.50;;;;;;;;;;6299813;28;20115;-79
2023/09/02 15:29:46;;;;;;;6.10;2.42;;;;;;;;;;6300122;28;20236;-81
2023/09/02 15:32:57;;;;;;;4.47;2.25;;;;;;;;;;6298580;28;20111;-80
2023/09/02 15:36:02;;;;;;;4.07;2.75;;;;;;;;;;6300279;28;20055;-80
2023/09/02 15:39:08;;;;;;;3.13;2.40;;;;;;;;;;6299033;28;20056;-79
2023/09/02 15:42:11;;;;;;;4.90;2.15;;;;;;;;;;6295879;28;20307;-79
2023/09/02 15:45:12;;;;;;;4.40;2.20;;;;;;;;;;6283741;28;20076;-79
2023/09/02 15:48:16;;;;;;;5.55;2.55;;;;;;;;;;6295567;28;20053;-79
2023/09/02 15:51:19;;;;;;;4.68;2.47;;;;;;;;;;6297826;28;20041;-79
2023/09/02 15:54:21;;;;;;;2.92;2.38;;;;;;;;;;6301706;28;20056;-79
2023/09/02 15:57:23;;;;;;;3.90;2.33;;;;;;;;;;6302548;28;20075;-80
2023/09/02 16:00:42;;;;;;;3.97;2.53;;;;;;;;;;6296518;28;20047;-79
2023/09/02 16:03:51;;;;;;;5.53;2.40;;;;;;;;;;6271594;28;20048;-79
2023/09/02 16:06:53;;;;;;;3.28;2.40;;;;;;;;;;6294016;28;20057;-79
2023/09/02 16:09:55;;;;;;;4.25;2.20;;;;;;;;;;6282647;28;20097;-79
2023/09/02 16:12:56;;;;;;;;;;;;;;;;;;6295961;28;20052;-79
2023/09/02 16:15:59;;;;;;;3.22;2.35;;;;;;;;;;6297688;28;19924;-79
2023/09/02 16:19:03;;;;;;;4.93;2.22;;;;;;;;;;6297104;28;20055;-79
2023/09/02 16:22:16;;;;;;;3.58;2.17;;;;;;;;;;6286184;28;20934;-80
2023/09/02 16:26:00;;;;;;;4.22;2.28;;;;;;;;;;6287731;28;20056;-79
2023/09/02 16:29:02;;;;;;;6.97;2.10;;;;;;;;;;6183499;28;20050;-85
2023/09/02 16:32:05;;;;;;;3.25;1.98;;;;;;;;;;6195787;28;20046;-78
2023/09/02 16:35:11;;;;;;;3.40;1.98;;;;;;;;;;6193474;28;20073;-79
2023/09/02 16:38:45;;;;;;;3.30;2.10;;;;;;;;;;6195014;28;20158;-79
2023/09/02 16:45:27;;;;;;;2.55;1.60;;;;;;;;;;6189910;28;20063;-79
2023/09/02 16:48:54;;;;;;;3.38;1.95;;;;;;;;;;6190604;28;20090;-78
2023/09/02 16:52:32;;;;;;;2.20;1.70;;;;;;;;;;6189164;28;20355;-78
2023/09/02 16:55:34;;;;;;;3.45;1.92;;;;;;;;;;6181861;28;20047;-78
2023/09/02 16:58:41;;;;;;;5.90;2.20;;;;;;;;;;6186867;28;20140;-79
2023/09/02 17:01:43;;;;;;;4.20;2.08;;;;;;;;;;6190059;28;20050;-79
2023/09/02 17:04:49;;;;;;;4.15;2.05;;;;;;;;;;6195142;28;20056;-79
2023/09/02 17:07:53;;;;;;;5.30;2.00;;;;;;;;;;6298962;28;20044;-81
2023/09/02 17:10:55;;;;;;;2.92;2.00;;;;;;;;;;6303706;28;20048;-78
2023/09/02 17:13:58;;;;;;;3.38;2.13;;;;;;;;;;6301743;28;20222;-78
2023/09/02 17:17:07;;;;;;;2.95;1.70;;;;;;;;;;6280219;28;20741;-79
2023/09/02 17:20:24;;;;;;;3.65;2.20;;;;;;;;;;6299579;28;20125;-79
2023/09/02 17:23:34;;;;;;;4.10;2.67;;;;;;;;;;6294318;28;20100;-79
2023/09/02 17:26:36;;;;;;;4.15;2.22;;;;;;;;;;6300562;28;20044;-79
2023/09/02 17:29:48;;;;;;;2.97;2.00;;;;;;;;;;6301683;28;20040;-78
2023/09/02 17:32:50;;;;;;;4.25;2.25;;;;;;;;;;6299097;28;20238;-79
2023/09/02 17:35:52;;;;;;;4.20;2.47;;;;;;;;;;6303563;28;20059;-79
2023/09/02 17:38:55;;;;;;;4.45;2.20;;;;;;;;;;6296121;28;20301;-79
2023/09/02 17:41:58;;;;;;;4.97;2.75;;;;;;;;;;6299384;28;20052;-78
2023/09/02 17:44:59;;;;;;;4.43;2.53;;;;;;;;;;6297953;28;20053;-78
2023/09/02 17:48:02;;;;;;;4.97;1.95;;;;;;;;;;6303863;28;20048;-79
2023/09/02 17:51:04;;;;;;;;;;;;;;;;;;6299349;28;20044;-78
2023/09/02 17:54:13;;;;;;;3.65;2.28;;;;;;;;;;6300716;28;19916;-78
2023/09/02 17:57:15;;;;;;;3.20;2.30;;;;;;;;;;6289781;28;20324;-78
2023/09/02 18:00:17;;;;;;;5.43;2.50;;;;;;;;;;6300042;28;20056;-78
2023/09/02 18:03:18;;;;;;;4.55;2.63;;;;;;;;;;6299163;28;20135;-78
2023/09/02 18:06:20;;;;;;;4.07;2.15;;;;;;;;;;6296701;28;20084;-78
2023/09/02 18:09:24;;;;;;;3.85;2.13;;;;;;;;;;6299903;28;20071;-78
2023/09/02 18:12:26;;;;;;;5.10;2.60;;;;;;;;;;6300151;28;20060;-79
2023/09/02 18:15:33;;;;;;;5.47;2.40;;;;;;;;;;6297766;28;20339;-78
2023/09/02 18:18:37;;;;;;;4.55;2.45;;;;;;;;;;6300527;28;20726;-78
2023/09/02 18:21:39;;;;;;;7.18;2.80;;;;;;;;;;6295248;28;20044;-78
2023/09/02 18:24:44;;;;;;;4.53;2.47;;;;;;;;;;6295251;28;20328;-79
2023/09/02 18:27:46;;;;;;;5.80;2.75;;;;;;;;;;6294961;28;20053;-78
2023/09/02 18:30:48;;;;;;;4.32;2.60;;;;;;;;;;6297794;28;20115;-78
2023/09/02 18:33:52;;;;;;;4.60;2.92;;;;;;;;;;6298204;28;20057;-78
2023/09/02 18:36:54;;;;;;;7.15;2.65;;;;;;;;;;6293366;28;20087;-79